KLNA/LNA METAR and TAF weather

Enter ICAO airport designator
Station Type Date Time Source
KLNA METAR 2020/01/20 12:55 UTC NOAA

KLNA 201255Z AUTO 35010KT CLR 20/16 A3009 RMK AO2 T01950161 PWINO PNO


Station Type Date Time Source
KLNA Decoded METAR 2020/01/20 12:55 UTC NOAA

Station name not available
Jan 20, 2020 - 07:55 AM EST / 2020.01.20 1255 UTC
Wind: from the N (350 degrees) at 12 MPH (10 KT):0
Sky conditions: clear
Temperature: 67.1 F (19.5 C)
Dew Point: 61.0 F (16.1 C)
Relative Humidity: 80%
Pressure (altimeter): 30.09 in. Hg (1018 hPa)
ob: KLNA 201255Z AUTO 35010KT CLR 20/16 A3009 RMK AO2 T01950161 PWINO PNO
cycle: 13

Station Type Date Time Source
KLNA TAF UTC NOAA

Error!

Example: see airport list